createdAt,value
2018-08-04T00:00:56.279Z,61.60
2018-08-04T00:03:29.019Z,61.40
2018-08-04T00:06:02.089Z,61.80
2018-08-04T00:08:35.150Z,62.00
2018-08-04T00:11:08.043Z,62.00
2018-08-04T00:13:41.254Z,62.00
2018-08-04T00:16:15.235Z,62.00
2018-08-04T00:18:48.217Z,61.70
2018-08-04T00:21:21.129Z,61.70
2018-08-04T00:23:54.093Z,61.70
2018-08-04T00:26:31.350Z,62.30
2018-08-04T00:31:56.470Z,62.90
2018-08-04T00:34:29.091Z,63.30
2018-08-04T00:39:32.284Z,63.30
2018-08-04T00:42:05.742Z,63.40
2018-08-04T00:44:39.118Z,63.60
2018-08-04T00:47:11.695Z,64.20
2018-08-04T00:49:45.227Z,64.70
2018-08-04T00:52:17.886Z,65.10
2018-08-04T00:54:50.531Z,65.90
2018-08-04T00:57:23.189Z,66.10
2018-08-04T00:59:56.783Z,66.20
2018-08-04T01:02:30.268Z,66.50
2018-08-04T01:05:04.212Z,67.00
2018-08-04T01:07:36.705Z,67.20
2018-08-04T01:10:10.447Z,67.60
2018-08-04T01:12:42.965Z,69.00
2018-08-04T01:15:16.946Z,69.60
2018-08-04T01:17:52.093Z,69.30
2018-08-04T01:20:25.987Z,69.10
2018-08-04T01:23:04.271Z,69.10
2018-08-04T01:25:36.717Z,69.60
2018-08-04T01:28:11.592Z,70.30
2018-08-04T01:30:44.020Z,71.30
2018-08-04T01:33:18.038Z,71.50
2018-08-04T01:35:50.577Z,72.30
2018-08-04T01:38:23.104Z,73.40
2018-08-04T01:40:58.556Z,73.10
2018-08-04T01:43:31.349Z,73.60
2018-08-04T01:46:04.486Z,74.40
2018-08-04T01:48:37.136Z,74.90
2018-08-04T01:51:12.278Z,76.20
2018-08-04T01:53:44.806Z,75.70
2018-08-04T01:56:17.208Z,77.00
2018-08-04T01:58:53.953Z,77.30
2018-08-04T02:01:26.324Z,77.50
2018-08-04T02:03:58.590Z,78.10
2018-08-04T02:06:31.210Z,78.20
2018-08-04T02:09:04.015Z,78.20
2018-08-04T02:11:36.451Z,78.70
2018-08-04T02:14:08.921Z,78.80
2018-08-04T02:16:41.431Z,79.00
2018-08-04T02:19:15.228Z,80.10
2018-08-04T02:21:47.770Z,80.20
2018-08-04T02:24:20.853Z,80.50
2018-08-04T02:26:58.475Z,81.30
2018-08-04T02:29:33.497Z,81.50
2018-08-04T02:32:05.970Z,81.80
2018-08-04T02:34:38.510Z,82.00
2018-08-04T02:37:12.642Z,82.10
2018-08-04T02:39:45.210Z,82.30
2018-08-04T02:42:17.971Z,82.80
2018-08-04T02:44:50.382Z,82.50
2018-08-04T02:47:22.982Z,83.30
2018-08-04T02:49:55.321Z,83.70
2018-08-04T02:52:27.652Z,83.80
2018-08-04T02:55:00.081Z,84.10
2018-08-04T02:57:34.189Z,84.60
2018-08-04T03:00:06.443Z,84.80
2018-08-04T03:02:38.831Z,85.20
2018-08-04T03:05:11.378Z,86.30
2018-08-04T03:07:43.665Z,86.20
2018-08-04T03:10:17.524Z,86.60
2018-08-04T03:12:49.934Z,86.90
2018-08-04T03:15:22.369Z,87.30
2018-08-04T03:17:54.852Z,88.10
2018-08-04T03:20:29.224Z,89.00
2018-08-04T03:23:01.919Z,89.00
2018-08-04T03:25:35.958Z,89.30
2018-08-04T03:28:18.138Z,89.30
2018-08-04T03:30:50.500Z,89.20
2018-08-04T03:33:28.789Z,88.70
2018-08-04T03:36:01.785Z,88.20
2018-08-04T03:38:34.232Z,87.90
2018-08-04T03:41:08.050Z,88.20
2018-08-04T03:43:40.472Z,88.20
2018-08-04T03:46:12.907Z,88.00
2018-08-04T03:48:45.223Z,88.00
2018-08-04T03:51:17.541Z,88.20
2018-08-04T03:53:52.171Z,87.90
2018-08-04T03:56:25.187Z,88.10
2018-08-04T03:58:58.097Z,88.00
2018-08-04T04:01:30.818Z,88.70
2018-08-04T04:04:03.891Z,89.00
2018-08-04T04:06:36.761Z,89.30
2018-08-04T04:09:12.246Z,89.80
2018-08-04T04:11:46.936Z,90.10
2018-08-04T04:14:19.723Z,90.30
2018-08-04T04:16:52.527Z,90.20
2018-08-04T04:19:25.256Z,90.50
2018-08-04T04:21:58.053Z,90.60
2018-08-04T04:24:33.011Z,91.00
2018-08-04T04:27:05.760Z,91.20
2018-08-04T04:29:38.764Z,91.30
2018-08-04T04:32:11.859Z,92.10
2018-08-04T04:34:44.566Z,91.50
2018-08-04T04:37:17.267Z,91.80
2018-08-04T04:42:05.239Z,91.60
2018-08-04T04:44:38.088Z,91.60
2018-08-04T04:47:11.625Z,91.80
2018-08-04T04:49:44.387Z,91.60
2018-08-04T04:52:17.107Z,91.90
2018-08-04T04:54:50.462Z,92.20
2018-08-04T04:57:23.022Z,92.00
2018-08-04T04:59:55.853Z,92.20
2018-08-04T05:02:28.648Z,92.10
2018-08-04T05:05:01.613Z,92.30
2018-08-04T05:07:34.391Z,92.50
2018-08-04T05:10:07.713Z,92.60
2018-08-04T05:12:40.438Z,92.80
2018-08-04T05:15:13.318Z,92.60
2018-08-04T05:17:46.052Z,92.80
2018-08-04T05:20:18.696Z,93.00
2018-08-04T05:22:51.783Z,93.00
2018-08-04T05:25:24.390Z,93.10
2018-08-04T05:27:57.979Z,93.10
2018-08-04T05:30:30.695Z,93.30
2018-08-04T05:33:03.511Z,93.20
2018-08-04T05:35:36.331Z,93.20
2018-08-04T05:38:09.217Z,93.20
2018-08-04T05:40:42.040Z,93.10
2018-08-04T05:43:14.988Z,93.20
2018-08-04T05:45:47.813Z,93.10
2018-08-04T05:48:20.851Z,93.10
2018-08-04T05:50:54.109Z,93.20
2018-08-04T05:53:26.706Z,93.10
2018-08-04T05:55:59.692Z,93.20
2018-08-04T05:58:32.500Z,93.20
2018-08-04T06:01:05.413Z,93.20
2018-08-04T06:03:38.167Z,93.10
2018-08-04T06:06:11.030Z,93.00
2018-08-04T06:08:44.076Z,92.90
2018-08-04T06:11:16.946Z,92.90
2018-08-04T06:13:49.894Z,92.90
2018-08-04T06:16:22.693Z,93.00
2018-08-04T06:18:56.086Z,93.00
2018-08-04T06:21:28.666Z,93.10
2018-08-04T06:24:01.518Z,93.20
2018-08-04T06:26:34.766Z,93.40
2018-08-04T06:29:07.710Z,93.40
2018-08-04T06:31:40.464Z,93.50
2018-08-04T06:34:13.381Z,93.70
2018-08-04T06:36:46.183Z,93.70
2018-08-04T06:39:18.840Z,93.70
2018-08-04T06:41:51.650Z,93.60
2018-08-04T06:44:24.408Z,93.60
2018-08-04T06:46:57.287Z,93.80
2018-08-04T06:49:30.097Z,93.80
2018-08-04T06:52:02.862Z,93.80
2018-08-04T06:54:35.696Z,94.20
2018-08-04T06:57:08.396Z,94.00
2018-08-04T06:59:41.819Z,94.40
2018-08-04T07:02:14.620Z,94.00
2018-08-04T07:04:47.545Z,94.10
2018-08-04T07:07:20.245Z,94.10
2018-08-04T07:09:53.765Z,94.60
2018-08-04T07:12:26.689Z,94.60
2018-08-04T07:14:59.532Z,94.30
2018-08-04T07:17:32.466Z,94.10
2018-08-04T07:20:05.691Z,94.00
2018-08-04T07:22:38.627Z,94.00
2018-08-04T07:25:11.551Z,93.90
2018-08-04T07:27:44.446Z,94.00
2018-08-04T07:30:17.739Z,93.80
2018-08-04T07:32:50.488Z,93.80
2018-08-04T07:35:23.332Z,93.90
2018-08-04T07:37:56.270Z,93.90
2018-08-04T07:40:29.210Z,94.00
2018-08-04T07:43:02.240Z,93.90
2018-08-04T07:45:34.951Z,93.90
2018-08-04T07:48:07.884Z,93.80
2018-08-04T07:50:40.656Z,93.80
2018-08-04T07:53:13.688Z,93.70
2018-08-04T07:55:46.654Z,93.70
2018-08-04T07:58:19.694Z,93.50
2018-08-04T08:00:52.489Z,93.50
2018-08-04T08:03:25.362Z,93.70
2018-08-04T08:05:58.119Z,93.80
2018-08-04T08:08:31.037Z,93.90
2018-08-04T08:11:03.752Z,94.00
2018-08-04T08:13:36.415Z,93.70
2018-08-04T08:16:09.891Z,93.60
2018-08-04T08:18:43.073Z,93.70
2018-08-04T08:21:15.991Z,93.80
2018-08-04T08:23:48.744Z,93.80
2018-08-04T08:26:21.403Z,93.80
2018-08-04T08:28:54.128Z,93.80
2018-08-04T08:31:26.909Z,94.00
2018-08-04T08:33:59.722Z,94.00
2018-08-04T08:36:32.433Z,94.10
2018-08-04T08:39:05.666Z,93.80
2018-08-04T08:41:38.566Z,93.50
2018-08-04T08:44:11.351Z,93.20
2018-08-04T08:46:43.959Z,93.20
2018-08-04T08:49:16.740Z,92.40
2018-08-04T08:51:54.038Z,92.40
2018-08-04T08:54:26.955Z,92.40
2018-08-04T08:57:00.946Z,92.60
2018-08-04T09:02:04.968Z,93.30
2018-08-04T09:04:37.933Z,93.30
2018-08-04T09:07:10.963Z,93.30
2018-08-04T09:09:43.842Z,93.10
2018-08-04T09:12:17.212Z,93.20
2018-08-04T09:14:50.075Z,93.20
2018-08-04T09:17:22.964Z,93.20
2018-08-04T09:19:55.668Z,93.40
2018-08-04T09:22:28.491Z,93.50
2018-08-04T09:25:01.190Z,93.60
2018-08-04T09:27:33.929Z,93.80
2018-08-04T09:30:07.996Z,93.90
2018-08-04T09:32:40.792Z,94.10
2018-08-04T09:35:14.706Z,94.30
2018-08-04T09:37:47.643Z,94.30
2018-08-04T09:40:20.545Z,94.50
2018-08-04T09:42:53.748Z,94.80
2018-08-04T09:45:26.586Z,94.80
2018-08-04T09:47:59.413Z,94.90
2018-08-04T09:50:32.132Z,95.20
2018-08-04T09:53:05.043Z,95.30
2018-08-04T09:55:37.711Z,95.90
2018-08-04T09:58:10.735Z,96.00
2018-08-04T10:00:47.722Z,96.10
2018-08-04T10:03:20.450Z,96.50
2018-08-04T10:05:53.330Z,96.30
2018-08-04T10:08:26.300Z,96.30
2018-08-04T10:10:59.225Z,96.70
2018-08-04T10:13:31.920Z,96.50
2018-08-04T10:16:04.624Z,96.70
2018-08-04T10:18:37.586Z,96.70
2018-08-04T10:21:12.599Z,96.90
2018-08-04T10:23:45.484Z,96.90
2018-08-04T10:26:18.357Z,96.90
2018-08-04T10:28:51.091Z,97.10
2018-08-04T10:31:24.009Z,97.10
2018-08-04T10:33:57.322Z,97.10
2018-08-04T10:36:30.237Z,97.10
2018-08-04T10:39:03.397Z,97.10
2018-08-04T10:41:38.556Z,97.00
2018-08-04T10:44:11.867Z,97.00
2018-08-04T10:46:44.575Z,97.10
2018-08-04T10:49:17.375Z,97.00
2018-08-04T10:51:50.370Z,97.00
2018-08-04T10:54:23.232Z,97.00
2018-08-04T10:56:56.346Z,97.00
2018-08-04T10:59:29.311Z,96.90
2018-08-04T11:02:02.157Z,96.90
2018-08-04T11:04:35.684Z,97.00
2018-08-04T11:07:09.199Z,97.00
2018-08-04T11:09:43.725Z,97.10
2018-08-04T11:12:16.573Z,97.20
2018-08-04T11:14:49.206Z,97.10
2018-08-04T11:17:22.101Z,97.10
2018-08-04T11:19:54.943Z,97.10
2018-08-04T11:22:27.538Z,97.20
2018-08-04T11:25:00.315Z,97.10
2018-08-04T11:27:33.023Z,97.40
2018-08-04T11:30:06.379Z,97.30
2018-08-04T11:32:39.120Z,97.30
2018-08-04T11:35:12.080Z,97.20
2018-08-04T11:37:44.844Z,97.10
2018-08-04T11:40:17.898Z,97.10
2018-08-04T11:48:02.143Z,96.60
2018-08-04T11:50:47.312Z,96.60
2018-08-04T11:53:24.507Z,96.30
2018-08-04T11:56:00.503Z,96.40
2018-08-04T11:58:33.218Z,96.20
2018-08-04T12:01:06.264Z,95.90
2018-08-04T12:03:39.011Z,95.90
2018-08-04T12:06:11.731Z,95.80
2018-08-04T12:08:44.598Z,96.00
2018-08-04T12:11:17.420Z,96.20
2018-08-04T12:13:50.151Z,96.30
2018-08-04T12:16:23.017Z,96.30
2018-08-04T12:18:55.922Z,96.30
2018-08-04T12:21:28.589Z,96.20
2018-08-04T12:24:01.355Z,96.20
2018-08-04T12:26:34.171Z,96.10
2018-08-04T12:29:07.852Z,96.00
2018-08-04T12:31:40.419Z,96.00
2018-08-04T12:34:13.241Z,95.80
2018-08-04T12:36:46.049Z,95.40
2018-08-04T12:39:18.837Z,94.90
2018-08-04T12:41:52.441Z,94.70
2018-08-04T12:44:25.559Z,94.60
2018-08-04T12:46:58.714Z,94.30
2018-08-04T12:49:31.758Z,94.10
2018-08-04T12:52:04.636Z,94.10
2018-08-04T12:54:38.218Z,93.90
2018-08-04T12:57:11.207Z,94.10
2018-08-04T12:59:44.580Z,93.90
2018-08-04T13:02:33.073Z,93.80
2018-08-04T13:05:19.168Z,93.60
2018-08-04T13:07:52.207Z,93.30
2018-08-04T13:10:36.597Z,93.00
2018-08-04T13:13:21.678Z,92.70
2018-08-04T13:16:08.343Z,92.50
2018-08-04T13:18:42.988Z,92.20
2018-08-04T13:21:25.157Z,91.60
2018-08-04T13:24:07.154Z,91.30
2018-08-04T13:26:41.067Z,91.50
2018-08-04T13:29:13.858Z,91.00
2018-08-04T13:31:46.893Z,90.80
2018-08-04T13:34:19.732Z,90.10
2018-08-04T13:36:52.483Z,89.80
2018-08-04T13:39:25.410Z,89.10
2018-08-04T13:41:58.055Z,88.50
2018-08-04T13:44:30.886Z,86.80
2018-08-04T13:47:03.771Z,86.90
2018-08-04T13:49:36.579Z,86.40
2018-08-04T13:52:09.420Z,84.60
2018-08-04T13:54:42.371Z,85.10
2018-08-04T13:57:15.008Z,83.20
2018-08-04T13:59:47.962Z,83.40
2018-08-04T14:02:20.830Z,82.30
2018-08-04T14:04:53.807Z,81.80
2018-08-04T14:07:27.034Z,81.10
2018-08-04T14:10:00.128Z,78.70
2018-08-04T14:12:33.006Z,78.60
2018-08-04T14:15:06.048Z,78.90
2018-08-04T14:17:38.756Z,78.50
2018-08-04T14:20:11.449Z,78.60
2018-08-04T14:22:44.271Z,78.00
2018-08-04T14:25:17.180Z,77.60
2018-08-04T14:27:49.951Z,77.70
2018-08-04T14:30:22.883Z,76.60
2018-08-04T14:32:55.813Z,76.40
2018-08-04T14:35:28.526Z,75.30
2018-08-04T14:38:01.183Z,75.70
2018-08-04T14:40:34.509Z,74.30
2018-08-04T14:43:09.073Z,73.30
2018-08-04T14:48:17.384Z,72.90
2018-08-04T14:50:50.234Z,73.50
2018-08-04T14:53:25.744Z,74.30
2018-08-04T14:55:58.661Z,71.50
2018-08-04T14:58:31.320Z,72.00
2018-08-04T15:01:04.016Z,72.40
2018-08-04T15:03:36.940Z,71.90
2018-08-04T15:06:09.641Z,72.80
2018-08-04T15:11:14.571Z,74.00
2018-08-04T15:13:47.394Z,74.50
2018-08-04T15:16:20.080Z,74.60
2018-08-04T15:18:52.821Z,74.70
2018-08-04T15:21:25.700Z,74.80
2018-08-04T15:23:58.550Z,75.60
2018-08-04T15:26:31.318Z,75.70
2018-08-04T15:29:04.213Z,75.10
2018-08-04T15:31:37.010Z,74.80
2018-08-04T15:34:09.868Z,74.50
2018-08-04T15:36:42.725Z,74.60
2018-08-04T15:39:15.484Z,74.70
2018-08-04T15:41:48.862Z,75.10
2018-08-04T15:44:21.761Z,75.60
2018-08-04T15:46:54.527Z,75.60
2018-08-04T15:49:27.241Z,75.70
2018-08-04T15:52:01.915Z,76.30
2018-08-04T15:54:35.166Z,75.80
2018-08-04T15:57:07.655Z,75.60
2018-08-04T15:59:40.287Z,76.20
2018-08-04T16:02:13.251Z,75.10
2018-08-04T16:04:45.966Z,74.20
2018-08-04T16:07:19.845Z,74.60
2018-08-04T16:09:52.733Z,75.00
2018-08-04T16:12:25.877Z,75.30
2018-08-04T16:15:00.989Z,74.70
2018-08-04T16:17:34.447Z,75.00
2018-08-04T16:20:07.917Z,74.20
2018-08-04T16:22:41.729Z,73.60
2018-08-04T16:25:15.340Z,73.40
2018-08-04T16:27:48.626Z,72.70
2018-08-04T16:30:21.565Z,72.10
2018-08-04T16:32:54.906Z,72.30
2018-08-04T16:37:59.413Z,72.80
2018-08-04T16:40:32.289Z,72.60
2018-08-04T16:43:05.392Z,71.50
2018-08-04T16:45:38.227Z,70.20
2018-08-04T16:48:11.010Z,69.60
2018-08-04T16:50:43.765Z,70.50
2018-08-04T16:53:16.652Z,70.90
2018-08-04T16:55:49.597Z,71.00
2018-08-04T16:58:22.499Z,70.20
2018-08-04T17:00:55.729Z,70.10
2018-08-04T17:03:28.576Z,70.60
2018-08-04T17:06:01.592Z,70.40
2018-08-04T17:08:34.438Z,69.80
2018-08-04T17:11:07.291Z,70.60
2018-08-04T17:13:39.950Z,71.70
2018-08-04T17:16:13.164Z,72.10
2018-08-04T17:18:49.177Z,70.70
2018-08-04T17:21:26.052Z,70.10
2018-08-04T17:24:01.709Z,70.00
2018-08-04T17:26:34.647Z,68.90
2018-08-04T17:29:07.732Z,69.40
2018-08-04T17:31:40.459Z,68.90
2018-08-04T17:34:13.728Z,68.70
2018-08-04T17:36:46.739Z,68.10
2018-08-04T17:39:19.942Z,66.40
2018-08-04T17:41:52.855Z,66.40
2018-08-04T17:44:25.783Z,65.30
2018-08-04T17:46:58.569Z,65.40
2018-08-04T17:49:31.357Z,63.80
2018-08-04T17:52:04.672Z,62.80
2018-08-04T17:57:09.358Z,65.30
2018-08-04T17:59:42.802Z,63.80
2018-08-04T18:02:16.210Z,63.00
2018-08-04T18:04:49.360Z,63.60
2018-08-04T18:07:22.335Z,64.30
2018-08-04T18:09:55.425Z,63.80
2018-08-04T18:12:31.478Z,63.30
2018-08-04T18:15:04.530Z,62.10
2018-08-04T18:17:37.657Z,61.60
2018-08-04T18:20:11.836Z,61.40
2018-08-04T18:22:44.780Z,61.20
2018-08-04T18:25:17.661Z,61.60
2018-08-04T18:27:50.468Z,61.10
2018-08-04T18:30:23.351Z,60.80
2018-08-04T18:32:56.231Z,59.50
2018-08-04T18:35:29.124Z,58.90
2018-08-04T18:38:02.087Z,57.50
2018-08-04T18:40:35.038Z,57.40
2018-08-04T18:43:07.768Z,57.10
2018-08-04T18:45:41.606Z,57.70
2018-08-04T18:48:14.563Z,57.50
2018-08-04T18:50:49.034Z,57.50
2018-08-04T18:53:21.953Z,58.70
2018-08-04T18:55:54.773Z,59.50
2018-08-04T18:58:27.752Z,59.70
2018-08-04T19:01:00.508Z,60.10
2018-08-04T19:03:33.182Z,60.50
2018-08-04T19:06:05.760Z,61.00
2018-08-04T19:08:38.394Z,61.70
2018-08-04T19:11:11.394Z,61.80
2018-08-04T19:13:44.229Z,62.70
2018-08-04T19:16:17.021Z,62.80
2018-08-04T19:18:49.850Z,62.80
2018-08-04T19:21:22.699Z,63.00
2018-08-04T19:23:55.712Z,62.20
2018-08-04T19:26:28.557Z,62.50
2018-08-04T19:29:01.347Z,62.90
2018-08-04T19:31:34.949Z,62.50
2018-08-04T19:34:07.763Z,63.00
2018-08-04T19:36:40.484Z,62.80
2018-08-04T19:39:13.113Z,62.90
2018-08-04T19:41:46.417Z,63.50
2018-08-04T19:44:19.262Z,62.90
2018-08-04T19:46:52.142Z,62.60
2018-08-04T19:49:26.097Z,63.50
2018-08-04T19:51:58.976Z,64.30
2018-08-04T19:54:32.007Z,64.90
2018-08-04T19:57:04.790Z,65.10
2018-08-04T19:59:44.049Z,65.00
2018-08-04T20:02:18.400Z,65.30
2018-08-04T20:04:51.691Z,65.90
2018-08-04T20:07:26.484Z,66.50
2018-08-04T20:10:02.477Z,66.70
2018-08-04T20:12:36.937Z,67.10
2018-08-04T20:15:12.742Z,67.80
2018-08-04T20:17:46.649Z,68.30
2018-08-04T20:20:22.459Z,70.20
2018-08-04T20:23:00.904Z,72.30
2018-08-04T20:25:36.158Z,75.60
2018-08-04T20:28:12.801Z,77.90
2018-08-04T20:30:49.540Z,79.00
2018-08-04T20:33:26.379Z,81.20
2018-08-04T20:36:03.109Z,81.80
2018-08-04T20:38:40.058Z,83.60
2018-08-04T20:41:17.152Z,85.40
2018-08-04T20:43:50.771Z,88.80
2018-08-04T20:46:27.955Z,88.60
2018-08-04T20:49:04.755Z,89.40
2018-08-04T20:51:41.671Z,89.00
2018-08-04T20:54:18.439Z,90.00
2018-08-04T20:56:55.298Z,89.70
2018-08-04T20:59:32.113Z,90.20
2018-08-04T21:02:09.589Z,90.00
2018-08-04T21:04:46.648Z,90.90
2018-08-04T21:07:23.514Z,90.50
2018-08-04T21:10:00.247Z,91.10
2018-08-04T21:12:37.175Z,90.80
2018-08-04T21:15:14.224Z,92.00
2018-08-04T21:17:47.097Z,91.80
2018-08-04T21:20:20.253Z,91.80
2018-08-04T21:22:53.051Z,91.80
2018-08-04T21:25:30.010Z,91.80
2018-08-04T21:28:06.806Z,91.40
2018-08-04T21:30:43.791Z,90.60
2018-08-04T21:33:22.600Z,90.50
2018-08-04T21:35:59.205Z,90.50
2018-08-04T21:38:35.979Z,90.30
2018-08-04T21:41:13.126Z,90.40
2018-08-04T21:43:50.419Z,90.70
2018-08-04T21:46:27.259Z,90.70
2018-08-04T21:49:02.961Z,90.40
2018-08-04T21:51:43.151Z,91.20
2018-08-04T21:54:20.841Z,90.90
2018-08-04T21:56:57.709Z,90.50
2018-08-04T21:59:34.556Z,90.70
2018-08-04T22:02:11.447Z,90.30
2018-08-04T22:04:47.149Z,90.40
2018-08-04T22:07:55.497Z,90.50
2018-08-04T22:10:28.384Z,90.30
2018-08-04T22:13:01.316Z,90.30
2018-08-04T22:15:34.517Z,90.00
2018-08-04T22:18:07.436Z,89.50
2018-08-04T22:20:40.360Z,89.50
2018-08-04T22:23:13.443Z,89.70
2018-08-04T22:25:46.370Z,89.10
2018-08-04T22:30:50.840Z,88.80
2018-08-04T22:33:23.513Z,88.60
2018-08-04T22:35:57.010Z,87.80
2018-08-04T22:38:29.689Z,88.30
2018-08-04T22:41:02.567Z,87.80
2018-08-04T22:43:39.318Z,87.80
2018-08-04T22:46:18.994Z,88.90
2018-08-04T22:48:52.844Z,89.00
2018-08-04T22:51:29.564Z,90.10
2018-08-04T22:54:02.283Z,90.40
2018-08-04T22:56:35.304Z,90.90
2018-08-04T22:59:08.151Z,91.30
2018-08-04T23:01:41.027Z,91.70
2018-08-04T23:04:14.460Z,92.00
2018-08-04T23:06:47.185Z,92.00
2018-08-04T23:09:19.843Z,93.10
2018-08-04T23:11:53.239Z,93.00
2018-08-04T23:14:26.013Z,93.20
2018-08-04T23:16:59.498Z,93.60
2018-08-04T23:19:32.335Z,94.10
2018-08-04T23:22:05.395Z,94.40
2018-08-04T23:24:40.413Z,94.50
2018-08-04T23:27:13.296Z,95.00
2018-08-04T23:29:45.923Z,95.40
2018-08-04T23:32:18.898Z,95.60
2018-08-04T23:34:51.724Z,95.40
2018-08-04T23:37:24.886Z,95.60
2018-08-04T23:39:57.563Z,95.60
2018-08-04T23:42:30.497Z,95.60
2018-08-04T23:45:03.446Z,95.60
2018-08-04T23:47:36.204Z,94.90
2018-08-04T23:50:09.321Z,94.90
2018-08-04T23:52:42.218Z,94.80
2018-08-04T23:55:15.490Z,94.90
2018-08-04T23:57:48.777Z,94.80
